Time;durP1;ratioP1;P1;durP2;ratioP2;P2;SDS_P1;SDS_P2;PMS_P1;PMS_P2;Temp;Humidity;BMP_temperature;BMP_pressure;BME280_temperature;BME280_humidity;BME280_pressure;Samples;Min_cycle;Max_cycle;Signal;HPM_P1;HPM_P2
2023/07/16 00:02:27;;;;;;;;;;;;;;;19.09;97.43;100856.13;20771727;28;20446;-60
2023/07/16 00:12:48;;;;;;;;;;;;;;;19.06;98.77;100828.28;20777700;28;19925;-59
2023/07/16 00:23:10;;;;;;;;;;;;;;;18.98;96.54;100820.09;20773395;28;19928;-59
2023/07/16 00:33:32;;;;;;;;;;;;;;;18.99;97.10;100850.59;20771424;28;19921;-60
2023/07/16 00:43:54;;;;;;;;;;;;;;;18.90;97.45;100845.97;20769720;28;19921;-60
2023/07/16 00:54:16;;;;;;;;;;;;;;;18.84;97.30;100854.22;20783987;28;19928;-59
2023/07/16 01:04:37;;;;;;;;;;;;;;;18.78;98.74;100849.38;20772899;28;19943;-59
2023/07/16 01:14:59;;;;;;;;;;;;;;;18.75;100.00;100870.53;20765952;28;19932;-59
2023/07/16 01:25:41;;;;;;;;;;;;;;;18.75;100.00;100875.78;20782867;28;19932;-60
2023/07/16 01:36:02;;;;;;;;;;;;;;;18.77;99.48;100867.84;20790959;28;19921;-61
2023/07/16 01:46:24;;;;;;;;;;;;;;;18.70;100.00;100872.59;20812148;28;19932;-60
2023/07/16 01:56:45;;;;;;;;;;;;;;;18.64;100.00;100878.22;20801843;28;19928;-60
2023/07/16 02:07:07;;;;;;;;;;;;;;;18.62;100.00;100877.50;20722480;28;19932;-60
2023/07/16 02:17:29;;;;;;;;;;;;;;;18.59;98.42;100885.53;20737399;28;19976;-60
2023/07/16 02:27:51;;;;;;;;;;;;;;;18.58;100.00;100899.59;20716928;28;19925;-60
2023/07/16 02:38:12;;;;;;;;;;;;;;;18.56;100.00;100896.22;20704841;28;19928;-60
2023/07/16 02:48:34;;;;;;;;;;;;;;;18.47;100.00;100893.31;20703652;28;19936;-61
2023/07/16 02:58:55;;;;;;;;;;;;;;;18.55;99.87;100889.28;20698964;28;19940;-61
2023/07/16 03:09:17;;;;;;;;;;;;;;;18.53;100.00;100885.09;20711034;28;19932;-61
2023/07/16 03:19:39;;;;;;;;;;;;;;;18.52;100.00;100889.47;20736757;28;20371;-61
2023/07/16 03:30:00;;;;;;;;;;;;;;;18.51;100.00;100898.28;20716158;28;19922;-61
2023/07/16 03:40:26;;;;;;;;;;;;;;;18.47;98.10;100928.25;20734941;28;19972;-61
2023/07/16 03:50:47;;;;;;;;;;;;;;;18.45;97.18;100924.03;20710074;28;19944;-61
2023/07/16 04:01:09;;;;;;;;;;;;;;;18.39;99.16;100935.69;20726855;28;19932;-61
2023/07/16 04:11:31;;;;;;;;;;;;;;;18.38;95.56;100938.41;20758451;28;20371;-61
2023/07/16 04:21:52;;;;;;;;;;;;;;;18.37;97.47;100942.78;20770794;28;19925;-61
2023/07/16 04:32:14;;;;;;;;;;;;;;;18.41;94.29;100957.44;20773617;28;20271;-60
2023/07/16 04:42:35;;;;;;;;;;;;;;;18.33;95.47;100962.25;20788252;28;19929;-61
2023/07/16 04:52:57;;;;;;;;;;;;;;;18.39;93.61;100972.38;20767891;28;20405;-60
2023/07/16 05:03:18;;;;;;;;;;;;;;;18.47;90.90;100972.81;20769067;28;19940;-61
2023/07/16 05:13:39;;;;;;;;;;;;;;;18.51;88.39;100987.41;20774813;28;20290;-61
2023/07/16 05:24:01;;;;;;;;;;;;;;;18.59;88.62;100987.78;20797697;28;19944;-61
2023/07/16 05:34:22;;;;;;;;;;;;;;;18.67;87.00;100985.53;20773610;28;19921;-60
2023/07/16 05:44:46;;;;;;;;;;;;;;;18.68;87.38;101000.31;20778690;28;19921;-61
2023/07/16 05:55:08;;;;;;;;;;;;;;;18.82;84.27;100997.72;20769358;28;19925;-61
2023/07/16 06:05:34;;;;;;;;;;;;;;;18.92;84.24;101006.69;20766672;28;19939;-61
2023/07/16 06:15:55;;;;;;;;;;;;;;;19.14;83.29;101008.00;20788849;28;19929;-60
2023/07/16 06:26:17;;;;;;;;;;;;;;;19.32;82.58;101015.56;20811882;28;19992;-61
2023/07/16 06:36:39;;;;;;;;;;;;;;;19.51;81.74;101023.13;20815049;28;19944;-59
2023/07/16 06:47:01;;;;;;;;;;;;;;;19.67;80.03;101018.56;20805457;28;19925;-60
2023/07/16 06:57:23;;;;;;;;;;;;;;;19.81;77.64;101036.94;20783437;28;19925;-59
2023/07/16 07:07:45;;;;;;;;;;;;;;;19.96;77.29;101052.53;20809261;28;19935;-59
2023/07/16 07:18:06;;;;;;;;;;;;;;;19.97;77.29;101045.50;20805910;28;19928;-60
2023/07/16 07:28:28;;;;;;;;;;;;;;;20.14;76.64;101061.00;20766735;28;19956;-61
2023/07/16 07:38:50;;;;;;;;;;;;;;;20.30;74.52;101060.84;20777318;28;20602;-60
2023/07/16 07:49:11;;;;;;;;;;;;;;;20.37;74.73;101068.22;20781892;28;19931;-61
2023/07/16 07:59:33;;;;;;;;;;;;;;;20.49;74.91;101072.66;20778614;28;20570;-60
2023/07/16 08:09:54;;;;;;;;;;;;;;;20.67;74.18;101071.44;20771897;28;20067;-61
2023/07/16 08:20:16;;;;;;;;;;;;;;;20.76;70.44;101075.22;20778548;28;19929;-61
2023/07/16 08:30:37;;;;;;;;;;;;;;;20.78;70.53;101084.72;20770655;28;20771;-61
2023/07/16 08:41:02;;;;;;;;;;;;;;;20.93;69.89;101099.44;20772492;28;19948;-61
2023/07/16 08:51:25;;;;;;;;;;;;;;;21.24;69.64;101100.00;20804404;28;19925;-61
2023/07/16 09:01:47;;;;;;;;;;;;;;;21.31;67.84;101120.53;20803690;28;19925;-60
2023/07/16 09:12:12;;;;;;;;;;;;;;;21.53;65.84;101140.94;20783588;28;19979;-63
2023/07/16 09:22:33;;;;;;;;;;;;;;;21.71;66.81;101139.63;20807051;28;19928;-79
2023/07/16 09:32:55;;;;;;;;;;;;;;;21.78;66.92;101154.88;20796337;28;19921;-61
2023/07/16 09:43:17;;;;;;;;;;;;;;;22.05;65.68;101146.00;20758408;28;20063;-62
2023/07/16 09:53:41;;;;;;;;;;;;;;;22.12;65.12;101171.81;20752414;28;20330;-63
2023/07/16 10:04:11;;;;;;;;;;;;;;;22.19;66.41;101175.69;20765787;28;19936;-62
2023/07/16 10:14:38;;;;;;;;;;;;;;;21.98;63.76;101193.03;20798953;28;19932;-62
2023/07/16 10:25:00;;;;;;;;;;;;;;;21.83;64.97;101202.00;20787954;28;19925;-62
2023/07/16 10:37:19;;;;;;;;;;;;;;;21.85;66.97;101210.66;21064183;27;19923;-63
2023/07/16 10:47:51;;;;;;;;;;;;;;;22.18;64.71;101224.06;20993979;28;19934;-62
2023/07/16 10:58:13;;;;;;;;;;;;;;;22.68;64.60;101223.91;20992272;28;19932;-63
2023/07/16 11:08:35;;;;;;;;;;;;;;;23.24;60.45;101229.38;21005661;28;20380;-67
2023/07/16 11:18:56;;;;;;;;;;;;;;;23.39;62.21;101246.72;20990887;28;20065;-62
2023/07/16 11:29:18;;;;;;;;;;;;;;;22.93;62.97;101260.72;21008621;28;20376;-64
2023/07/16 11:39:39;;;;;;;;;;;;;;;23.16;62.23;101266.09;21007705;28;19968;-63
2023/07/16 11:50:01;;;;;;;;;;;;;;;23.15;64.29;101251.22;20942492;28;19932;-64
2023/07/16 12:00:23;;;;;;;;;;;;;;;23.08;63.78;101252.59;20926365;28;20051;-64
2023/07/16 12:10:44;;;;;;;;;;;;;;;22.66;64.01;101262.78;20941236;28;19929;-63
2023/07/16 12:21:06;;;;;;;;;;;;;;;22.39;63.57;101291.13;20918040;28;20034;-63
2023/07/16 12:31:27;;;;;;;;;;;;;;;22.38;65.96;101299.97;20917809;28;20327;-60
2023/07/16 12:41:49;;;;;;;;;;;;;;;22.59;64.19;101311.69;20933432;28;20328;-61
2023/07/16 12:52:11;;;;;;;;;;;;;;;22.63;62.49;101328.13;20926529;28;19932;-61
2023/07/16 13:02:32;;;;;;;;;;;;;;;22.73;64.90;101324.69;20974788;22;19934;-61
2023/07/16 13:12:54;;;;;;;;;;;;;;;22.70;63.15;101332.84;21096675;27;19943;-61
2023/07/16 13:23:15;;;;;;;;;;;;;;;22.86;63.99;101335.22;21034514;28;19934;-60
2023/07/16 13:33:37;;;;;;;;;;;;;;;23.02;63.90;101329.66;21039412;28;19928;-60
2023/07/16 13:43:58;;;;;;;;;;;;;;;22.76;64.06;101356.13;21017908;28;19928;-61
2023/07/16 13:54:19;;;;;;;;;;;;;;;22.57;62.71;101353.16;21023192;28;19928;-61
2023/07/16 14:04:41;;;;;;;;;;;;;;;22.92;65.07;101369.94;21024271;28;19946;-61
2023/07/16 14:15:03;;;;;;;;;;;;;;;23.08;64.80;101363.53;21018879;28;19936;-61
2023/07/16 14:25:25;;;;;;;;;;;;;;;22.90;63.86;101365.72;21021366;28;19928;-68
2023/07/16 14:35:46;;;;;;;;;;;;;;;22.96;64.34;101366.09;21029239;28;19924;-61
2023/07/16 14:46:08;;;;;;;;;;;;;;;23.12;63.61;101365.84;21036603;28;19934;-61
2023/07/16 14:56:30;;;;;;;;;;;;;;;23.22;63.17;101366.81;21029382;28;19931;-61
2023/07/16 15:06:51;;;;;;;;;;;;;;;23.38;62.84;101367.44;21019338;28;19986;-61
2023/07/16 15:17:13;;;;;;;;;;;;;;;23.15;63.36;101372.69;21028096;28;20017;-61
2023/07/16 15:27:35;;;;;;;;;;;;;;;22.87;62.54;101369.41;21038476;28;20007;-61
2023/07/16 15:37:59;;;;;;;;;;;;;;;22.82;67.89;101370.69;21035389;28;20022;-61
2023/07/16 15:48:20;;;;;;;;;;;;;;;22.87;64.64;101366.78;21031951;28;19930;-61
2023/07/16 15:58:42;;;;;;;;;;;;;;;22.98;67.14;101363.38;21030535;28;20386;-61
2023/07/16 16:09:03;;;;;;;;;;;;;;;23.23;60.25;101351.84;21044808;28;19964;-60
2023/07/16 16:19:25;;;;;;;;;;;;;;;23.53;62.92;101360.16;21035349;28;19935;-62
2023/07/16 16:29:47;;;;;;;;;;;;;;;23.43;64.24;101365.28;21024625;28;20007;-62
2023/07/16 16:40:09;;;;;;;;;;;;;;;23.22;63.65;101372.09;21036412;28;19959;-61
2023/07/16 16:50:31;;;;;;;;;;;;;;;22.94;64.51;101394.44;21044814;28;19985;-62
2023/07/16 17:00:53;;;;;;;;;;;;;;;22.44;66.95;101394.53;21028407;28;19958;-61
2023/07/16 17:11:15;;;;;;;;;;;;;;;22.22;68.05;101383.78;21033137;28;19924;-62
2023/07/16 17:21:37;;;;;;;;;;;;;;;22.39;67.43;101386.09;21039527;28;20966;-62
2023/07/16 17:31:59;;;;;;;;;;;;;;;22.73;65.88;101393.31;21030045;28;19989;-62
2023/07/16 17:42:20;;;;;;;;;;;;;;;22.88;64.31;101416.00;21016216;28;19928;-62
2023/07/16 17:52:46;;;;;;;;;;;;;;;22.96;66.87;101403.06;21014034;28;19925;-62
2023/07/16 18:03:07;;;;;;;;;;;;;;;22.89;64.69;101407.09;21021018;28;20007;-61
2023/07/16 18:13:29;;;;;;;;;;;;;;;22.80;66.53;101412.19;21034606;28;19928;-61
2023/07/16 18:23:51;;;;;;;;;;;;;;;22.62;67.17;101414.34;21039029;28;20382;-62
2023/07/16 18:34:12;;;;;;;;;;;;;;;22.49;68.25;101426.69;21032705;28;19960;-61
2023/07/16 18:44:34;;;;;;;;;;;;;;;22.37;67.79;101419.63;21026732;28;19928;-61
2023/07/16 18:54:56;;;;;;;;;;;;;;;22.31;66.03;101430.59;21040454;28;20294;-62
2023/07/16 19:05:18;;;;;;;;;;;;;;;22.26;66.70;101438.00;21039278;28;19938;-62
2023/07/16 19:15:40;;;;;;;;;;;;;;;22.16;67.17;101441.38;21056872;28;19930;-62
2023/07/16 19:26:04;;;;;;;;;;;;;;;22.11;68.01;101446.09;21053879;28;19928;-61
2023/07/16 19:36:25;;;;;;;;;;;;;;;22.07;67.39;101453.38;21045674;28;19924;-62
2023/07/16 19:46:47;;;;;;;;;;;;;;;21.98;67.41;101461.91;21042992;28;20023;-61
2023/07/16 19:57:08;;;;;;;;;;;;;;;21.85;67.77;101463.66;21042101;28;19939;-62
2023/07/16 20:07:34;;;;;;;;;;;;;;;21.62;69.41;101488.03;21028868;28;19968;-62
2023/07/16 20:17:56;;;;;;;;;;;;;;;21.43;70.17;101487.53;21028866;28;20358;-62
2023/07/16 20:28:19;;;;;;;;;;;;;;;21.26;70.24;101479.88;21016362;28;19932;-62
2023/07/16 20:38:40;;;;;;;;;;;;;;;21.21;69.51;101474.91;21028504;28;19924;-62
2023/07/16 20:49:02;;;;;;;;;;;;;;;21.13;67.91;101481.59;21023539;28;19935;-62
2023/07/16 20:59:24;;;;;;;;;;;;;;;20.98;67.42;101491.28;21014835;28;20377;-62
2023/07/16 21:09:45;;;;;;;;;;;;;;;20.90;68.07;101498.78;21023396;28;20356;-62
2023/07/16 21:20:09;;;;;;;;;;;;;;;20.87;68.29;101494.59;20994229;28;19932;-62
2023/07/16 21:30:31;;;;;;;;;;;;;;;20.77;68.40;101490.81;21012983;28;19938;-61
2023/07/16 21:40:52;;;;;;;;;;;;;;;20.64;69.01;101496.91;21044227;27;19924;-61
2023/07/16 21:51:14;;;;;;;;;;;;;;;20.54;68.99;101501.06;21018169;28;20019;-62
2023/07/16 22:01:37;;;;;;;;;;;;;;;20.42;68.89;101492.09;20981782;28;19932;-62
2023/07/16 22:11:58;;;;;;;;;;;;;;;20.36;70.10;101487.25;20998799;28;19928;-62
2023/07/16 22:22:20;;;;;;;;;;;;;;;20.31;70.36;101498.97;21004345;28;19928;-62
2023/07/16 22:32:41;;;;;;;;;;;;;;;20.26;70.68;101491.34;21007866;28;19930;-62
2023/07/16 22:43:03;;;;;;;;;;;;;;;20.20;72.10;101475.09;21007905;28;19932;-62
2023/07/16 22:53:26;;;;;;;;;;;;;;;20.07;72.22;101482.81;21004527;28;19970;-61
2023/07/16 23:03:47;;;;;;;;;;;;;;;19.95;72.56;101470.41;21010105;28;19924;-62
2023/07/16 23:14:09;;;;;;;;;;;;;;;19.88;73.01;101474.31;21002261;28;19927;-62
2023/07/16 23:24:31;;;;;;;;;;;;;;;19.81;73.14;101467.72;21005270;28;19931;-62
2023/07/16 23:34:52;;;;;;;;;;;;;;;19.76;72.98;101459.28;20998455;28;19931;-62
2023/07/16 23:45:14;;;;;;;;;;;;;;;19.74;73.33;101463.78;21024781;28;19995;-62
2023/07/16 23:55:35;;;;;;;;;;;;;;;19.80;72.86;101456.38;21036474;28;20284;-61
